createdAt,value
2022-12-03T00:00:08.948Z,95167.75
2022-12-03T00:02:38.613Z,95180.59
2022-12-03T00:05:05.509Z,95164.53
2022-12-03T00:07:32.101Z,95177.31
2022-12-03T00:09:58.593Z,95169.44
2022-12-03T00:12:25.055Z,95163.16
2022-12-03T00:14:51.531Z,95160.47
2022-12-03T00:17:18.128Z,95159.84
2022-12-03T00:19:44.577Z,95163.50
2022-12-03T00:22:12.822Z,95161.78
2022-12-03T00:24:39.420Z,95159.56
2022-12-03T00:27:05.910Z,95160.47
2022-12-03T00:29:32.393Z,95154.84
2022-12-03T00:31:58.950Z,95154.41
2022-12-03T00:34:25.404Z,95165.81
2022-12-03T00:36:51.901Z,95159.94
2022-12-03T00:39:18.449Z,95163.50
2022-12-03T00:41:44.939Z,95165.81
2022-12-03T00:44:11.379Z,95167.88
2022-12-03T00:46:37.871Z,95171.06
2022-12-03T00:49:04.346Z,95176.69
2022-12-03T00:51:30.835Z,95177.69
2022-12-03T00:53:57.341Z,95180.69
2022-12-03T00:56:24.076Z,95179.22
2022-12-03T00:58:50.606Z,95173.00
2022-12-03T01:01:17.131Z,95186.28
2022-12-03T01:03:43.645Z,95178.09
2022-12-03T01:06:10.171Z,95182.22
2022-12-03T01:08:36.674Z,95182.72
2022-12-03T01:11:03.199Z,95174.19
2022-12-03T01:13:29.658Z,95188.88
2022-12-03T01:15:56.176Z,95179.16
2022-12-03T01:18:22.682Z,95172.25
2022-12-03T01:20:49.199Z,95175.97
2022-12-03T01:23:15.681Z,95175.53
2022-12-03T01:25:42.133Z,95181.25
2022-12-03T01:28:08.621Z,95180.19
2022-12-03T01:30:35.089Z,95178.16
2022-12-03T01:33:01.553Z,95171.38
2022-12-03T01:35:28.020Z,95177.91
2022-12-03T01:37:54.599Z,95183.75
2022-12-03T01:40:21.985Z,95173.50
2022-12-03T01:42:48.533Z,95175.59
2022-12-03T01:45:23.574Z,95167.81
2022-12-03T01:47:50.189Z,95168.78
2022-12-03T01:50:30.078Z,95174.31
2022-12-03T01:53:01.567Z,95175.34
2022-12-03T01:55:28.544Z,95177.16
2022-12-03T01:57:59.592Z,95168.78
2022-12-03T02:00:27.247Z,95180.91
2022-12-03T02:03:00.200Z,95173.06
2022-12-03T02:05:30.471Z,95172.16
2022-12-03T02:07:58.055Z,95172.94
2022-12-03T02:10:35.692Z,95172.78
2022-12-03T02:13:07.547Z,95177.22
2022-12-03T02:15:35.272Z,95175.81
2022-12-03T02:18:02.291Z,95174.19
2022-12-03T02:20:32.926Z,95178.97
2022-12-03T02:23:26.232Z,95168.44
2022-12-03T02:25:52.771Z,95179.56
2022-12-03T02:28:19.367Z,95173.78
2022-12-03T02:30:45.980Z,95185.72
2022-12-03T02:33:12.585Z,95191.97
2022-12-03T02:35:39.745Z,95187.88
2022-12-03T02:38:17.072Z,95198.13
2022-12-03T02:40:46.332Z,95192.91
2022-12-03T02:43:16.251Z,95190.84
2022-12-03T02:45:47.471Z,95182.22
2022-12-03T02:48:19.360Z,95187.41
2022-12-03T02:50:52.251Z,95188.22
2022-12-03T02:53:26.331Z,95183.72
2022-12-03T02:55:55.741Z,95176.31
2022-12-03T02:58:24.840Z,95171.25
2022-12-03T03:00:54.920Z,95167.97
2022-12-03T03:03:23.890Z,95170.38
2022-12-03T03:05:50.880Z,95177.53
2022-12-03T03:08:18.738Z,95175.09
2022-12-03T03:10:47.829Z,95176.72
2022-12-03T03:13:17.153Z,95177.38
2022-12-03T03:15:44.679Z,95173.97
2022-12-03T03:18:13.155Z,95177.25
2022-12-03T03:20:41.486Z,95175.06
2022-12-03T03:23:10.684Z,95182.50
2022-12-03T03:25:39.410Z,95182.50
2022-12-03T03:28:07.215Z,95177.50
2022-12-03T03:30:36.297Z,95181.91
2022-12-03T03:33:02.886Z,95182.88
2022-12-03T03:35:29.819Z,95179.75
2022-12-03T03:37:57.705Z,95181.34
2022-12-03T03:40:26.048Z,95182.47
2022-12-03T03:42:53.087Z,95180.53
2022-12-03T03:45:22.728Z,95178.25
2022-12-03T03:47:54.768Z,95179.47
2022-12-03T03:50:22.152Z,95179.63
2022-12-03T03:52:48.977Z,95169.31
2022-12-03T03:55:15.549Z,95167.66
2022-12-03T03:57:42.074Z,95170.44
2022-12-03T04:00:09.616Z,95169.88
2022-12-03T04:02:37.552Z,95178.53
2022-12-03T04:05:05.035Z,95175.34
2022-12-03T04:07:31.565Z,95177.00
2022-12-03T04:09:58.076Z,95175.91
2022-12-03T04:12:41.004Z,95166.31
2022-12-03T04:15:25.707Z,95172.06
2022-12-03T04:18:06.829Z,95173.28
2022-12-03T04:20:33.294Z,95172.06
2022-12-03T04:22:59.767Z,95175.38
2022-12-03T04:25:26.229Z,95172.63
2022-12-03T04:27:52.677Z,95174.00
2022-12-03T04:30:19.145Z,95178.50
2022-12-03T04:32:45.638Z,95178.06
2022-12-03T04:35:12.161Z,95182.97
2022-12-03T04:37:38.749Z,95187.59
2022-12-03T04:40:06.064Z,95178.63
2022-12-03T04:42:32.556Z,95166.94
2022-12-03T04:44:59.027Z,95168.75
2022-12-03T04:47:25.536Z,95164.94
2022-12-03T04:49:52.044Z,95164.94
2022-12-03T04:52:20.551Z,95162.19
2022-12-03T04:54:47.120Z,95171.50
2022-12-03T04:57:13.598Z,95183.00
2022-12-03T04:59:40.124Z,95176.88
2022-12-03T05:02:07.512Z,95177.28
2022-12-03T05:04:34.066Z,95180.28
2022-12-03T05:07:00.717Z,95171.22
2022-12-03T05:09:27.184Z,95162.31
2022-12-03T05:11:53.687Z,95168.22
2022-12-03T05:14:20.236Z,95160.44
2022-12-03T05:16:46.677Z,95167.13
2022-12-03T05:19:13.149Z,95164.66
2022-12-03T05:21:39.621Z,95159.75
2022-12-03T05:24:06.143Z,95157.81
2022-12-03T05:26:32.749Z,95166.31
2022-12-03T05:28:59.239Z,95165.50
2022-12-03T05:31:25.742Z,95157.81
2022-12-03T05:33:52.261Z,95156.16
2022-12-03T05:36:18.729Z,95147.94
2022-12-03T05:38:45.373Z,95147.69
2022-12-03T05:41:14.571Z,95149.44
2022-12-03T05:43:41.030Z,95145.75
2022-12-03T05:46:07.536Z,95132.91
2022-12-03T05:48:34.038Z,95135.88
2022-12-03T05:51:00.508Z,95126.31
2022-12-03T05:53:26.979Z,95130.53
2022-12-03T05:55:53.465Z,95127.38
2022-12-03T05:58:19.913Z,95138.34
2022-12-03T06:00:46.374Z,95132.91
2022-12-03T06:03:12.992Z,95130.41
2022-12-03T06:05:39.582Z,95134.53
2022-12-03T06:08:06.143Z,95135.91
2022-12-03T06:10:32.688Z,95135.88
2022-12-03T06:12:59.148Z,95135.53
2022-12-03T06:15:25.635Z,95139.09
2022-12-03T06:17:52.129Z,95145.50
2022-12-03T06:20:20.080Z,95148.19
2022-12-03T06:22:47.104Z,95143.56
2022-12-03T06:25:14.863Z,95144.63
2022-12-03T06:27:41.441Z,95144.34
2022-12-03T06:30:08.513Z,95146.81
2022-12-03T06:32:35.056Z,95140.97
2022-12-03T06:35:01.587Z,95150.59
2022-12-03T06:37:28.075Z,95152.97
2022-12-03T06:39:54.512Z,95158.16
2022-12-03T06:42:20.956Z,95164.72
2022-12-03T06:44:47.462Z,95169.38
2022-12-03T06:47:13.932Z,95167.34
2022-12-03T06:49:40.451Z,95154.78
2022-12-03T06:52:06.908Z,95165.09
2022-12-03T06:54:33.397Z,95163.56
2022-12-03T06:56:59.885Z,95165.88
2022-12-03T06:59:26.373Z,95165.69
2022-12-03T07:01:52.896Z,95157.63
2022-12-03T07:04:19.480Z,95165.47
2022-12-03T07:06:45.964Z,95155.84
2022-12-03T07:09:12.406Z,95157.44
2022-12-03T07:11:38.869Z,95158.56
2022-12-03T07:14:07.617Z,95159.16
2022-12-03T07:16:35.556Z,95159.16
2022-12-03T07:19:02.544Z,95157.88
2022-12-03T07:21:29.268Z,95162.66
2022-12-03T07:23:55.819Z,95157.63
2022-12-03T07:26:22.296Z,95156.38
2022-12-03T07:28:48.749Z,95157.97
2022-12-03T07:31:15.569Z,95152.22
2022-12-03T07:33:42.077Z,95157.34
2022-12-03T07:36:09.047Z,95160.44
2022-12-03T07:38:35.521Z,95160.53
2022-12-03T07:41:01.985Z,95159.16
2022-12-03T07:43:28.461Z,95164.09
2022-12-03T07:45:54.991Z,95156.19
2022-12-03T07:48:21.479Z,95163.56
2022-12-03T07:50:47.953Z,95157.66
2022-12-03T07:53:14.510Z,95145.72
2022-12-03T07:55:40.992Z,95140.78
2022-12-03T07:58:07.459Z,95141.63
2022-12-03T08:00:33.987Z,95136.03
2022-12-03T08:03:00.468Z,95136.66
2022-12-03T08:05:26.914Z,95130.66
2022-12-03T08:07:53.410Z,95131.72
2022-12-03T08:10:19.939Z,95127.91
2022-12-03T08:12:46.730Z,95128.94
2022-12-03T08:15:16.949Z,95134.59
2022-12-03T08:17:46.900Z,95134.19
2022-12-03T08:20:19.798Z,95130.13
2022-12-03T08:22:49.590Z,95127.75
2022-12-03T08:25:29.299Z,95126.88
2022-12-03T08:28:02.348Z,95138.00
2022-12-03T08:30:28.904Z,95131.19
2022-12-03T08:32:58.040Z,95133.75
2022-12-03T08:35:30.247Z,95130.66
2022-12-03T08:38:09.415Z,95129.72
2022-12-03T08:40:40.713Z,95128.75
2022-12-03T08:43:18.208Z,95131.75
2022-12-03T08:45:45.627Z,95123.56
2022-12-03T08:48:25.010Z,95119.94
2022-12-03T08:50:53.444Z,95121.06
2022-12-03T08:53:35.763Z,95112.13
2022-12-03T08:56:04.867Z,95113.34
2022-12-03T08:58:39.126Z,95106.66
2022-12-03T09:01:08.395Z,95109.53
2022-12-03T09:03:35.057Z,95112.19
2022-12-03T09:06:01.735Z,95111.97
2022-12-03T09:08:28.409Z,95113.72
2022-12-03T09:10:54.905Z,95117.31
2022-12-03T09:13:21.533Z,95117.22
2022-12-03T09:15:48.011Z,95118.69
2022-12-03T09:18:14.763Z,95122.03
2022-12-03T09:20:41.356Z,95115.09
2022-12-03T09:23:07.990Z,95110.25
2022-12-03T09:25:34.492Z,95122.75
2022-12-03T09:28:00.970Z,95136.50
2022-12-03T09:30:27.551Z,95123.66
2022-12-03T09:32:54.163Z,95132.59
2022-12-03T09:35:20.633Z,95133.00
2022-12-03T09:37:47.119Z,95131.66
2022-12-03T09:40:14.296Z,95144.28
2022-12-03T09:42:41.342Z,95135.97
2022-12-03T09:45:12.049Z,95142.25
2022-12-03T09:47:43.775Z,95136.66
2022-12-03T09:50:17.073Z,95144.13
2022-12-03T09:52:43.516Z,95135.50
2022-12-03T09:55:20.700Z,95131.56
2022-12-03T09:57:47.453Z,95136.81
2022-12-03T10:00:19.512Z,95133.06
2022-12-03T10:02:48.582Z,95135.56
2022-12-03T10:05:15.239Z,95138.63
2022-12-03T10:07:42.442Z,95143.13
2022-12-03T10:10:18.064Z,95126.13
2022-12-03T10:12:45.491Z,95133.28
2022-12-03T10:15:15.891Z,95116.56
2022-12-03T10:17:42.796Z,95119.44
2022-12-03T10:20:16.726Z,95120.53
2022-12-03T10:22:43.252Z,95112.97
2022-12-03T10:25:13.485Z,95109.03
2022-12-03T10:27:40.781Z,95108.41
2022-12-03T10:30:19.602Z,95101.84
2022-12-03T10:33:14.373Z,95104.25
2022-12-03T10:35:43.879Z,95087.50
2022-12-03T10:38:19.869Z,95111.25
2022-12-03T10:40:46.510Z,95096.94
2022-12-03T10:43:19.083Z,95096.59
2022-12-03T10:46:03.481Z,95092.72
2022-12-03T10:48:30.809Z,95096.81
2022-12-03T10:50:57.256Z,95098.22
2022-12-03T10:53:29.298Z,95098.88
2022-12-03T10:55:56.239Z,95090.19
2022-12-03T10:58:25.697Z,95083.09
2022-12-03T11:00:55.172Z,95088.53
2022-12-03T11:03:28.785Z,95089.94
2022-12-03T11:05:57.114Z,95072.13
2022-12-03T11:08:26.630Z,95080.78
2022-12-03T11:11:00.984Z,95075.88
2022-12-03T11:13:33.397Z,95067.59
2022-12-03T11:16:01.519Z,95068.00
2022-12-03T11:18:36.802Z,95075.66
2022-12-03T11:21:09.824Z,95080.63
2022-12-03T11:23:45.431Z,95086.13
2022-12-03T11:26:18.423Z,95084.00
2022-12-03T11:28:45.513Z,95084.91
2022-12-03T11:31:33.788Z,95079.53
2022-12-03T11:34:18.555Z,95081.66
2022-12-03T11:37:20.283Z,95073.94
2022-12-03T11:39:49.494Z,95077.91
2022-12-03T11:42:22.313Z,95084.81
2022-12-03T11:45:08.658Z,95083.94
2022-12-03T11:48:03.634Z,95074.09
2022-12-03T11:50:40.810Z,95077.41
2022-12-03T11:53:21.080Z,95083.13
2022-12-03T11:55:52.097Z,95087.44
2022-12-03T11:58:30.363Z,95079.25
2022-12-03T12:01:00.021Z,95087.09
2022-12-03T12:03:35.430Z,95078.78
2022-12-03T12:06:08.248Z,95076.47
2022-12-03T12:08:37.357Z,95066.94
2022-12-03T12:11:16.556Z,95066.44
2022-12-03T12:13:42.968Z,95059.94
2022-12-03T12:16:09.681Z,95060.59
2022-12-03T12:18:38.829Z,95057.31
2022-12-03T12:21:43.104Z,95051.25
2022-12-03T12:24:37.550Z,95055.00
2022-12-03T12:27:10.323Z,95051.84
2022-12-03T12:29:38.909Z,95046.47
2022-12-03T12:32:08.356Z,95045.38
2022-12-03T12:34:38.264Z,95044.03
2022-12-03T12:37:11.565Z,95051.72
2022-12-03T12:39:38.449Z,95037.66
2022-12-03T12:42:36.292Z,95041.22
2022-12-03T12:45:08.914Z,95035.47
2022-12-03T12:47:36.241Z,95030.38
2022-12-03T12:50:10.440Z,95028.75
2022-12-03T12:52:49.107Z,95031.06
2022-12-03T12:55:15.655Z,95032.97
2022-12-03T12:57:42.210Z,95024.47
2022-12-03T13:00:19.064Z,95026.00
2022-12-03T13:02:50.921Z,95026.81
2022-12-03T13:05:17.919Z,95036.00
2022-12-03T13:07:45.414Z,95036.78
2022-12-03T13:10:35.416Z,95023.84
2022-12-03T13:13:20.491Z,95029.56
2022-12-03T13:15:57.111Z,95031.00
2022-12-03T13:18:35.005Z,95019.31
2022-12-03T13:21:33.484Z,95021.81
2022-12-03T13:24:00.824Z,95019.63
2022-12-03T13:26:38.581Z,95014.56
2022-12-03T13:29:18.213Z,95017.91
2022-12-03T13:31:58.346Z,95018.16
2022-12-03T13:34:28.261Z,95015.53
2022-12-03T13:36:58.529Z,95013.44
2022-12-03T13:39:31.365Z,95017.69
2022-12-03T13:42:33.181Z,95007.53
2022-12-03T13:45:02.478Z,95008.84
2022-12-03T13:47:29.084Z,95012.13
2022-12-03T13:50:00.480Z,95011.44
2022-12-03T13:52:27.097Z,95012.72
2022-12-03T13:54:55.926Z,95006.72
2022-12-03T13:57:23.065Z,95005.06
2022-12-03T13:59:49.686Z,94994.91
2022-12-03T14:02:16.264Z,95006.09
2022-12-03T14:04:42.782Z,95004.28
2022-12-03T14:07:09.258Z,95002.19
2022-12-03T14:09:35.804Z,95006.03
2022-12-03T14:12:02.264Z,95004.47
2022-12-03T14:14:28.748Z,95004.16
2022-12-03T14:16:59.662Z,94997.94
2022-12-03T14:19:26.603Z,94999.09
2022-12-03T14:21:53.138Z,94993.56
2022-12-03T14:24:19.586Z,94993.16
2022-12-03T14:26:46.051Z,94994.44
2022-12-03T14:29:12.509Z,94995.34
2022-12-03T14:31:39.056Z,95000.50
2022-12-03T14:34:05.581Z,95002.81
2022-12-03T14:36:32.191Z,94984.94
2022-12-03T14:38:58.717Z,94984.50
2022-12-03T14:41:25.285Z,94986.50
2022-12-03T14:43:51.751Z,95001.22
2022-12-03T14:46:18.313Z,94992.00
2022-12-03T14:48:44.981Z,94987.44
2022-12-03T14:51:11.447Z,94982.50
2022-12-03T14:53:37.935Z,94985.81
2022-12-03T14:56:04.470Z,94985.72
2022-12-03T14:58:30.926Z,94979.88
2022-12-03T15:00:57.454Z,94983.28
2022-12-03T15:03:24.087Z,94984.75
2022-12-03T15:05:50.695Z,94970.25
2022-12-03T15:08:17.266Z,94989.56
2022-12-03T15:10:43.788Z,94983.91
2022-12-03T15:13:10.236Z,94978.50
2022-12-03T15:15:36.690Z,94982.47
2022-12-03T15:18:03.229Z,94986.66
2022-12-03T15:20:30.934Z,94977.34
2022-12-03T15:22:57.446Z,94982.78
2022-12-03T15:25:23.989Z,94976.28
2022-12-03T15:27:50.641Z,94978.44
2022-12-03T15:30:17.457Z,94983.72
2022-12-03T15:32:43.953Z,94985.44
2022-12-03T15:35:10.449Z,94977.69
2022-12-03T15:37:36.901Z,94989.66
2022-12-03T15:40:03.548Z,94988.63
2022-12-03T15:42:30.004Z,94979.75
2022-12-03T15:44:56.537Z,94976.06
2022-12-03T15:47:22.969Z,94976.72
2022-12-03T15:49:49.429Z,94982.75
2022-12-03T15:52:15.897Z,94976.59
2022-12-03T15:54:42.398Z,94982.00
2022-12-03T15:57:08.857Z,94981.28
2022-12-03T15:59:35.337Z,94983.22
2022-12-03T16:02:01.909Z,94979.84
2022-12-03T16:04:28.477Z,94982.16
2022-12-03T16:06:54.926Z,94984.31
2022-12-03T16:09:27.084Z,94989.34
2022-12-03T16:11:54.269Z,94981.25
2022-12-03T16:14:20.720Z,94979.16
2022-12-03T16:16:47.201Z,94978.81
2022-12-03T16:19:13.635Z,94982.66
2022-12-03T16:21:40.093Z,94972.72
2022-12-03T16:24:06.751Z,94980.41
2022-12-03T16:26:33.261Z,94980.00
2022-12-03T16:28:59.751Z,94980.50
2022-12-03T16:31:27.245Z,94994.88
2022-12-03T16:33:53.741Z,94978.88
2022-12-03T16:36:20.331Z,94986.59
2022-12-03T16:38:46.853Z,94984.53
2022-12-03T16:41:13.336Z,94982.81
2022-12-03T16:43:39.817Z,94979.75
2022-12-03T16:46:07.325Z,94968.00
2022-12-03T16:48:33.821Z,94977.53
2022-12-03T16:51:00.295Z,94972.63
2022-12-03T16:53:26.792Z,94988.16
2022-12-03T16:55:53.275Z,94981.66
2022-12-03T16:58:19.769Z,94976.44
2022-12-03T17:00:46.420Z,94974.84
2022-12-03T17:03:12.929Z,94980.78
2022-12-03T17:05:39.532Z,94979.69
2022-12-03T17:08:06.089Z,94982.59
2022-12-03T17:10:32.696Z,94980.25
2022-12-03T17:13:14.508Z,94964.03
2022-12-03T17:15:41.352Z,94976.53
2022-12-03T17:18:08.531Z,94964.78
2022-12-03T17:20:35.396Z,94970.38
2022-12-03T17:23:02.437Z,94964.03
2022-12-03T17:25:29.758Z,94961.44
2022-12-03T17:27:56.299Z,94962.16
2022-12-03T17:30:23.036Z,94965.09
2022-12-03T17:32:49.503Z,94962.78
2022-12-03T17:35:18.182Z,94969.69
2022-12-03T17:37:44.968Z,94967.56
2022-12-03T17:40:13.937Z,94958.66
2022-12-03T17:42:40.424Z,94964.13
2022-12-03T17:45:07.644Z,94967.91
2022-12-03T17:47:34.169Z,94973.66
2022-12-03T17:50:00.652Z,94976.91
2022-12-03T17:52:27.120Z,94966.94
2022-12-03T17:55:12.861Z,94980.28
2022-12-03T17:57:40.082Z,94973.69
2022-12-03T18:00:07.176Z,94980.78
2022-12-03T18:02:33.643Z,94980.94
2022-12-03T18:05:00.075Z,94977.50
2022-12-03T18:07:26.586Z,94979.41
2022-12-03T18:09:53.374Z,94974.19
2022-12-03T18:12:20.131Z,94976.44
2022-12-03T18:14:46.639Z,94980.53
2022-12-03T18:17:13.081Z,94977.22
2022-12-03T18:19:39.614Z,94963.81
2022-12-03T18:22:06.203Z,94962.66
2022-12-03T18:24:51.521Z,94953.34
2022-12-03T18:27:20.373Z,94967.25
2022-12-03T18:29:46.872Z,94965.09
2022-12-03T18:32:27.677Z,94963.56
2022-12-03T18:34:55.708Z,94953.97
2022-12-03T18:37:26.937Z,94965.44
2022-12-03T18:39:54.121Z,94958.59
2022-12-03T18:42:22.811Z,94965.38
2022-12-03T18:44:51.908Z,94968.13
2022-12-03T18:47:22.327Z,94957.78
2022-12-03T18:49:48.976Z,94957.38
2022-12-03T18:52:18.863Z,94967.34
2022-12-03T18:54:46.121Z,94956.59
2022-12-03T18:57:12.979Z,94964.63
2022-12-03T18:59:40.230Z,94962.47
2022-12-03T19:02:07.947Z,94958.81
2022-12-03T19:04:34.455Z,94955.28
2022-12-03T19:07:00.920Z,94946.97
2022-12-03T19:09:27.382Z,94953.81
2022-12-03T19:11:53.877Z,94962.34
2022-12-03T19:14:20.328Z,94952.56
2022-12-03T19:16:46.893Z,94962.94
2022-12-03T19:19:13.389Z,94959.59
2022-12-03T19:21:39.869Z,94971.34
2022-12-03T19:26:53.237Z,94965.56
2022-12-03T19:29:20.334Z,94966.97
2022-12-03T19:31:48.420Z,94953.94
2022-12-03T19:34:14.939Z,94947.97
2022-12-03T19:36:41.416Z,94947.53
2022-12-03T19:39:07.870Z,94960.56
2022-12-03T19:41:34.396Z,94964.09
2022-12-03T19:44:01.717Z,94951.84
2022-12-03T19:46:30.606Z,94954.03
2022-12-03T19:48:57.271Z,94946.94
2022-12-03T19:51:34.676Z,94946.16
2022-12-03T19:54:04.290Z,94950.63
2022-12-03T19:56:31.176Z,94950.06
2022-12-03T19:58:58.026Z,94943.31
2022-12-03T20:01:28.040Z,94945.16
2022-12-03T20:03:56.509Z,94943.78
2022-12-03T20:06:26.413Z,94935.84
2022-12-03T20:09:00.901Z,94943.28
2022-12-03T20:11:33.059Z,94941.16
2022-12-03T20:14:03.664Z,94947.72
2022-12-03T20:16:30.681Z,94951.97
2022-12-03T20:19:00.137Z,94954.72
2022-12-03T20:21:30.204Z,94943.13
2022-12-03T20:23:56.892Z,94950.56
2022-12-03T20:26:24.097Z,94942.19
2022-12-03T20:28:53.419Z,94940.03
2022-12-03T20:31:22.533Z,94948.34
2022-12-03T20:33:52.380Z,94951.03
2022-12-03T20:36:20.826Z,94960.84
2022-12-03T20:38:47.408Z,94954.94
2022-12-03T20:41:18.200Z,94945.78
2022-12-03T20:43:45.223Z,94947.13
2022-12-03T20:46:16.642Z,94960.78
2022-12-03T20:48:44.855Z,94971.03
2022-12-03T20:51:18.547Z,94962.34
2022-12-03T20:53:45.970Z,94958.44
2022-12-03T20:56:25.257Z,94975.44
2022-12-03T20:58:52.204Z,94976.88
2022-12-03T21:01:25.294Z,94967.97
2022-12-03T21:03:53.968Z,94968.78
2022-12-03T21:06:22.002Z,94959.31
2022-12-03T21:08:48.694Z,94967.72
2022-12-03T21:11:22.635Z,94966.75
2022-12-03T21:13:49.775Z,94968.56
2022-12-03T21:16:19.085Z,94966.03
2022-12-03T21:18:45.724Z,94985.78
2022-12-03T21:21:14.492Z,94981.72
2022-12-03T21:23:42.465Z,94982.38
2022-12-03T21:26:14.836Z,94981.44
2022-12-03T21:28:43.408Z,94988.84
2022-12-03T21:31:17.923Z,95002.38
2022-12-03T21:33:45.476Z,95004.22
2022-12-03T21:36:13.368Z,95012.06
2022-12-03T21:38:40.030Z,95007.75
2022-12-03T21:41:07.006Z,95010.22
2022-12-03T21:43:33.680Z,95003.25
2022-12-03T21:46:04.329Z,94996.09
2022-12-03T21:48:50.791Z,95005.50
2022-12-03T21:51:18.524Z,94993.78
2022-12-03T21:53:45.932Z,95013.91
2022-12-03T21:56:15.825Z,95001.16
2022-12-03T21:58:43.411Z,94994.00
2022-12-03T22:01:15.929Z,94998.53
2022-12-03T22:03:42.764Z,94987.72
2022-12-03T22:06:10.425Z,94979.66
2022-12-03T22:08:37.674Z,94967.84
2022-12-03T22:11:10.097Z,94962.28
2022-12-03T22:13:40.816Z,94966.69
2022-12-03T22:16:10.136Z,94965.59
2022-12-03T22:18:37.283Z,94956.34
2022-12-03T22:21:10.389Z,94958.53
2022-12-03T22:23:37.455Z,94955.47
2022-12-03T22:26:06.524Z,94944.31
2022-12-03T22:28:34.435Z,94942.13
2022-12-03T22:31:09.185Z,94937.28
2022-12-03T22:33:36.668Z,94946.59
2022-12-03T22:36:06.818Z,94945.50
2022-12-03T22:38:34.149Z,94944.28
2022-12-03T22:41:05.053Z,94940.91
2022-12-03T22:43:31.522Z,94943.16
2022-12-03T22:45:58.077Z,94943.38
2022-12-03T22:48:25.003Z,94945.63
2022-12-03T22:50:52.047Z,94937.34
2022-12-03T22:53:19.400Z,94939.94
2022-12-03T22:55:54.720Z,94937.03
2022-12-03T22:58:21.462Z,94945.22
2022-12-03T23:00:47.982Z,94933.63
2022-12-03T23:03:14.635Z,94926.00
2022-12-03T23:05:41.438Z,94919.69
2022-12-03T23:08:12.207Z,94934.75
2022-12-03T23:10:41.663Z,94929.50
2022-12-03T23:13:09.368Z,94932.97
2022-12-03T23:15:35.944Z,94937.56
2022-12-03T23:18:02.495Z,94931.81
2022-12-03T23:20:29.469Z,94936.00
2022-12-03T23:22:56.157Z,94947.72
2022-12-03T23:25:22.635Z,94954.28
2022-12-03T23:27:49.134Z,94950.56
2022-12-03T23:30:16.229Z,94949.66
2022-12-03T23:32:43.219Z,94942.28
2022-12-03T23:35:12.077Z,94941.31
2022-12-03T23:37:42.042Z,94933.41
2022-12-03T23:40:08.877Z,94933.13
2022-12-03T23:42:35.372Z,94929.31
2022-12-03T23:45:01.933Z,94936.91
2022-12-03T23:47:28.429Z,94928.47
2022-12-03T23:49:55.330Z,94933.28
2022-12-03T23:52:21.984Z,94927.50
2022-12-03T23:54:48.450Z,94924.63
2022-12-03T23:57:14.941Z,94909.44
2022-12-03T23:59:41.748Z,94905.06
